createdAt,value
2022-09-07T00:02:05.491Z,77.51
2022-09-07T00:04:32.226Z,77.95
2022-09-07T00:06:58.873Z,77.55
2022-09-07T00:09:25.656Z,77.56
2022-09-07T00:11:52.283Z,77.59
2022-09-07T00:14:18.907Z,77.27
2022-09-07T00:16:45.713Z,77.01
2022-09-07T00:19:12.414Z,77.20
2022-09-07T00:21:39.147Z,77.48
2022-09-07T00:24:06.102Z,77.54
2022-09-07T00:26:32.795Z,77.93
2022-09-07T00:29:01.709Z,78.23
2022-09-07T00:31:30.430Z,78.20
2022-09-07T00:33:59.808Z,78.18
2022-09-07T00:36:27.129Z,78.21
2022-09-07T00:38:54.113Z,78.56
2022-09-07T00:41:21.951Z,78.65
2022-09-07T00:43:57.433Z,78.28
2022-09-07T00:46:25.901Z,78.62
2022-09-07T00:48:59.596Z,78.72
2022-09-07T00:51:35.577Z,78.34
2022-09-07T00:54:07.893Z,78.21
2022-09-07T00:56:38.767Z,78.03
2022-09-07T00:59:06.561Z,77.82
2022-09-07T01:01:34.601Z,77.38
2022-09-07T01:04:02.858Z,77.69
2022-09-07T01:06:33.310Z,76.97
2022-09-07T01:09:04.454Z,76.79
2022-09-07T01:11:31.552Z,77.03
2022-09-07T01:13:58.614Z,76.76
2022-09-07T01:17:02.806Z,76.67
2022-09-07T01:19:49.377Z,76.53
2022-09-07T01:22:50.142Z,76.61
2022-09-07T01:25:33.498Z,76.92
2022-09-07T01:28:20.476Z,76.73
2022-09-07T01:30:56.067Z,77.21
2022-09-07T01:33:29.298Z,77.49
2022-09-07T01:36:20.280Z,77.43
2022-09-07T01:38:55.306Z,77.25
2022-09-07T01:41:24.993Z,77.62
2022-09-07T01:44:10.213Z,77.82
2022-09-07T01:46:42.916Z,77.93
2022-09-07T01:49:40.482Z,77.85
2022-09-07T01:52:36.708Z,77.59
2022-09-07T01:55:11.041Z,77.52
2022-09-07T01:57:47.202Z,77.64
2022-09-07T02:00:18.353Z,77.36
2022-09-07T02:02:50.099Z,77.31
2022-09-07T02:05:27.373Z,77.44
2022-09-07T02:08:10.492Z,77.50
2022-09-07T02:10:42.399Z,77.94
2022-09-07T02:13:22.709Z,77.70
2022-09-07T02:15:56.361Z,77.97
2022-09-07T02:18:25.851Z,78.29
2022-09-07T02:20:57.144Z,78.47
2022-09-07T02:23:28.334Z,78.69
2022-09-07T02:25:59.073Z,78.67
2022-09-07T02:28:34.621Z,79.25
2022-09-07T02:31:02.104Z,79.33
2022-09-07T02:33:29.690Z,79.54
2022-09-07T02:35:56.967Z,79.94
2022-09-07T02:38:25.514Z,80.00
2022-09-07T02:40:57.440Z,79.73
2022-09-07T02:43:25.927Z,79.60
2022-09-07T02:45:52.526Z,79.65
2022-09-07T02:48:48.777Z,79.26
2022-09-07T02:51:29.550Z,79.12
2022-09-07T02:54:14.290Z,78.95
2022-09-07T02:57:05.177Z,79.22
2022-09-07T03:00:02.248Z,79.32
2022-09-07T03:02:39.593Z,79.24
2022-09-07T03:05:17.951Z,79.34
2022-09-07T03:08:02.300Z,79.55
2022-09-07T03:10:30.004Z,79.56
2022-09-07T03:12:56.743Z,79.71
2022-09-07T03:15:26.609Z,79.53
2022-09-07T03:17:54.226Z,79.31
2022-09-07T03:20:22.989Z,79.34
2022-09-07T03:22:50.908Z,79.59
2022-09-07T03:25:18.058Z,79.71
2022-09-07T03:27:44.774Z,79.65
2022-09-07T03:30:12.875Z,79.77
2022-09-07T03:32:40.244Z,80.04
2022-09-07T03:35:08.279Z,80.19
2022-09-07T03:37:38.534Z,80.21
2022-09-07T03:40:08.161Z,79.99
2022-09-07T03:42:35.632Z,79.99
2022-09-07T03:45:02.244Z,79.70
2022-09-07T03:47:29.050Z,79.79
2022-09-07T03:49:55.724Z,79.39
2022-09-07T03:52:22.329Z,79.34
2022-09-07T03:54:48.938Z,79.31
2022-09-07T03:57:15.742Z,79.12
2022-09-07T03:59:42.341Z,78.98
2022-09-07T04:02:08.966Z,78.56
2022-09-07T04:04:35.607Z,78.60
2022-09-07T04:07:02.206Z,78.46
2022-09-07T04:09:28.782Z,78.71
2022-09-07T04:11:55.402Z,78.35
2022-09-07T04:14:22.191Z,78.39
2022-09-07T04:16:48.933Z,78.40
2022-09-07T04:19:15.567Z,78.22
2022-09-07T04:21:44.324Z,78.18
2022-09-07T04:24:10.926Z,78.29
2022-09-07T04:26:37.713Z,77.96
2022-09-07T04:29:05.354Z,78.12
2022-09-07T04:31:34.342Z,78.11
2022-09-07T04:34:01.894Z,78.21
2022-09-07T04:36:28.852Z,78.08
2022-09-07T04:38:57.737Z,78.15
2022-09-07T04:41:24.484Z,77.95
2022-09-07T04:43:57.338Z,78.04
2022-09-07T04:46:29.831Z,78.12
2022-09-07T04:49:07.264Z,77.89
2022-09-07T04:51:34.298Z,77.86
2022-09-07T04:54:02.831Z,78.28
2022-09-07T04:56:30.833Z,78.63
2022-09-07T04:58:57.696Z,78.47
2022-09-07T05:01:25.799Z,78.69
2022-09-07T05:03:52.580Z,78.91
2022-09-07T05:06:22.057Z,79.30
2022-09-07T05:08:53.733Z,79.01
2022-09-07T05:11:28.366Z,79.37
2022-09-07T05:14:00.758Z,79.46
2022-09-07T05:16:28.097Z,79.25
2022-09-07T05:19:02.764Z,79.29
2022-09-07T05:21:34.325Z,79.40
2022-09-07T05:24:01.912Z,79.14
2022-09-07T05:26:30.792Z,79.51
2022-09-07T05:31:49.394Z,79.48
2022-09-07T05:34:31.870Z,79.61
2022-09-07T05:36:59.326Z,79.56
2022-09-07T05:39:26.533Z,79.51
2022-09-07T05:41:53.782Z,79.65
2022-09-07T05:47:07.336Z,79.60
2022-09-07T05:49:34.101Z,79.73
2022-09-07T05:52:00.683Z,79.38
2022-09-07T05:54:27.316Z,79.55
2022-09-07T05:56:53.884Z,79.25
2022-09-07T05:59:20.505Z,79.12
2022-09-07T06:01:47.218Z,79.16
2022-09-07T06:04:13.844Z,78.42
2022-09-07T06:06:40.494Z,78.60
2022-09-07T06:09:07.823Z,78.57
2022-09-07T06:11:34.456Z,78.61
2022-09-07T06:14:01.149Z,78.63
2022-09-07T06:16:27.866Z,78.44
2022-09-07T06:18:54.630Z,78.33
2022-09-07T06:21:23.385Z,78.67
2022-09-07T06:23:50.908Z,78.20
2022-09-07T06:26:19.737Z,77.92
2022-09-07T06:28:51.417Z,77.67
2022-09-07T06:31:21.579Z,77.70
2022-09-07T06:33:49.145Z,77.53
2022-09-07T06:36:16.760Z,77.23
2022-09-07T06:38:44.071Z,76.87
2022-09-07T06:44:17.480Z,76.22
2022-09-07T06:49:30.658Z,75.20
2022-09-07T06:51:57.238Z,74.93
2022-09-07T06:57:11.514Z,74.46
2022-09-07T06:59:38.766Z,73.96
2022-09-07T07:02:06.455Z,73.11
2022-09-07T07:04:39.496Z,73.20
2022-09-07T07:07:10.790Z,73.58
2022-09-07T07:09:37.799Z,73.36
2022-09-07T07:12:04.519Z,73.38
2022-09-07T07:14:34.301Z,73.50
2022-09-07T07:17:02.171Z,73.60
2022-09-07T07:19:28.803Z,74.03
2022-09-07T07:24:41.993Z,74.72
2022-09-07T07:27:08.583Z,74.77
2022-09-07T07:29:35.166Z,74.79
2022-09-07T07:32:01.999Z,75.26
2022-09-07T07:34:29.173Z,75.74
2022-09-07T07:36:55.775Z,75.62
2022-09-07T07:42:09.277Z,75.63
2022-09-07T07:44:35.886Z,75.55
2022-09-07T07:47:02.855Z,75.72
2022-09-07T07:49:29.485Z,76.19
2022-09-07T07:54:43.420Z,76.12
2022-09-07T07:57:10.399Z,75.94
2022-09-07T07:59:37.257Z,76.33
2022-09-07T08:02:08.764Z,76.45
2022-09-07T08:04:36.259Z,76.31
2022-09-07T08:07:09.683Z,76.34
2022-09-07T08:09:44.800Z,76.66
2022-09-07T08:12:13.994Z,76.79
2022-09-07T08:14:41.700Z,76.82
2022-09-07T08:17:12.895Z,76.29
2022-09-07T08:19:39.750Z,76.18
2022-09-07T08:22:07.451Z,75.89
2022-09-07T08:24:34.194Z,75.46
2022-09-07T08:27:00.973Z,74.58
2022-09-07T08:29:27.605Z,74.34
2022-09-07T08:31:54.602Z,73.92
2022-09-07T08:34:21.940Z,73.41
2022-09-07T08:36:48.757Z,72.96
2022-09-07T08:39:15.359Z,72.49
2022-09-07T08:42:03.350Z,71.91
2022-09-07T08:44:51.626Z,71.28
2022-09-07T08:47:37.484Z,71.58
2022-09-07T08:50:17.938Z,71.79
2022-09-07T08:52:52.486Z,71.65
2022-09-07T08:55:47.215Z,70.32
2022-09-07T08:58:48.350Z,70.04
2022-09-07T09:01:33.251Z,69.88
2022-09-07T09:04:17.268Z,70.07
2022-09-07T09:07:05.415Z,70.55
2022-09-07T09:09:41.528Z,70.57
2022-09-07T09:12:33.299Z,70.62
2022-09-07T09:15:13.688Z,69.75
2022-09-07T09:17:55.204Z,68.94
2022-09-07T09:20:40.376Z,67.40
2022-09-07T09:23:13.175Z,66.79
2022-09-07T09:25:47.797Z,66.81
2022-09-07T09:28:14.456Z,66.41
2022-09-07T09:30:41.977Z,66.71
2022-09-07T09:33:15.494Z,66.29
2022-09-07T09:35:44.221Z,66.09
2022-09-07T09:38:32.893Z,65.43
2022-09-07T09:41:04.255Z,64.21
2022-09-07T09:43:54.570Z,63.95
2022-09-07T09:46:24.072Z,62.69
2022-09-07T09:48:54.683Z,62.43
2022-09-07T09:54:29.825Z,61.62
2022-09-07T09:56:56.752Z,61.54
2022-09-07T10:05:27.771Z,60.68
2022-09-07T10:07:54.678Z,60.90
2022-09-07T10:10:21.381Z,61.32
2022-09-07T10:12:54.150Z,61.03
2022-09-07T10:15:39.964Z,61.23
2022-09-07T10:18:09.665Z,61.65
2022-09-07T10:20:38.079Z,61.71
2022-09-07T10:23:06.565Z,62.21
2022-09-07T10:25:41.603Z,63.06
2022-09-07T10:28:14.396Z,63.33
2022-09-07T10:31:15.785Z,63.54
2022-09-07T10:36:55.510Z,62.37
2022-09-07T10:39:43.769Z,61.19
2022-09-07T10:42:25.546Z,61.23
2022-09-07T10:45:13.926Z,61.33
2022-09-07T10:48:05.380Z,61.57
2022-09-07T10:50:48.433Z,61.53
2022-09-07T10:53:40.062Z,61.29
2022-09-07T10:56:28.027Z,61.00
2022-09-07T10:59:06.642Z,60.21
2022-09-07T11:02:02.940Z,59.78
2022-09-07T11:04:33.985Z,58.11
2022-09-07T11:07:38.389Z,56.49
2022-09-07T11:10:16.963Z,57.38
2022-09-07T11:12:45.221Z,58.41
2022-09-07T11:15:25.124Z,59.40
2022-09-07T11:18:00.916Z,59.04
2022-09-07T11:20:37.518Z,59.94
2022-09-07T11:23:41.421Z,60.61
2022-09-07T11:26:38.869Z,61.39
2022-09-07T11:29:29.840Z,61.99
2022-09-07T11:32:03.287Z,60.78
2022-09-07T11:35:03.922Z,60.24
2022-09-07T11:37:49.159Z,59.30
2022-09-07T11:40:21.517Z,56.95
2022-09-07T11:42:59.518Z,54.48
2022-09-07T11:45:39.042Z,54.35
2022-09-07T11:48:30.870Z,55.89
2022-09-07T11:51:07.691Z,54.26
2022-09-07T11:53:39.507Z,51.68
2022-09-07T11:56:21.918Z,51.09
2022-09-07T11:59:10.362Z,51.47
2022-09-07T12:01:49.595Z,52.39
2022-09-07T12:04:47.099Z,52.42
2022-09-07T12:07:32.107Z,51.65
2022-09-07T12:10:20.451Z,51.49
2022-09-07T12:12:52.789Z,50.70
2022-09-07T12:15:46.578Z,50.27
2022-09-07T12:18:16.283Z,51.51
2022-09-07T12:20:48.043Z,50.30
2022-09-07T12:23:17.635Z,49.88
2022-09-07T12:25:46.592Z,49.15
2022-09-07T12:28:24.007Z,47.79
2022-09-07T12:30:56.656Z,48.14
2022-09-07T12:33:27.192Z,47.43
2022-09-07T12:35:56.950Z,47.76
2022-09-07T12:38:33.964Z,47.00
2022-09-07T12:41:02.870Z,46.01
2022-09-07T12:43:32.127Z,45.08
2022-09-07T12:46:00.854Z,44.96
2022-09-07T12:48:36.654Z,44.85
2022-09-07T12:51:09.577Z,43.99
2022-09-07T12:53:56.950Z,42.49
2022-09-07T13:00:02.996Z,45.37
2022-09-07T13:02:44.753Z,45.80
2022-09-07T13:05:39.182Z,46.16
2022-09-07T13:08:34.210Z,46.02
2022-09-07T13:11:30.139Z,46.61
2022-09-07T13:14:02.957Z,46.85
2022-09-07T13:17:15.968Z,46.63
2022-09-07T13:20:03.938Z,48.31
2022-09-07T13:22:30.483Z,46.93
2022-09-07T13:25:24.877Z,46.00
2022-09-07T13:27:58.509Z,45.22
2022-09-07T13:30:44.291Z,45.27
2022-09-07T13:33:43.097Z,45.10
2022-09-07T13:36:39.400Z,45.02
2022-09-07T13:39:15.919Z,45.57
2022-09-07T13:41:54.400Z,45.99
2022-09-07T13:44:29.951Z,47.30
2022-09-07T13:47:13.219Z,48.70
2022-09-07T13:49:47.066Z,49.34
2022-09-07T13:52:31.507Z,49.31
2022-09-07T13:55:25.972Z,49.22
2022-09-07T13:58:14.348Z,49.33
2022-09-07T14:00:55.721Z,48.62
2022-09-07T14:03:25.834Z,48.68
2022-09-07T14:06:14.309Z,49.05
2022-09-07T14:08:42.268Z,49.89
2022-09-07T14:11:23.669Z,51.01
2022-09-07T14:14:13.743Z,47.95
2022-09-07T14:16:42.916Z,47.73
2022-09-07T14:19:18.955Z,47.09
2022-09-07T14:21:55.400Z,45.74
2022-09-07T14:24:29.702Z,45.55
2022-09-07T14:26:56.646Z,44.75
2022-09-07T14:29:26.573Z,43.55
2022-09-07T14:31:54.405Z,42.13
2022-09-07T14:34:24.651Z,41.07
2022-09-07T14:36:52.413Z,40.12
2022-09-07T14:39:22.324Z,40.46
2022-09-07T14:41:49.785Z,40.43
2022-09-07T14:44:33.016Z,41.40
2022-09-07T14:47:04.608Z,40.56
2022-09-07T14:49:31.467Z,40.56
2022-09-07T14:51:58.415Z,41.00
2022-09-07T14:54:31.740Z,39.76
2022-09-07T14:57:06.476Z,39.81
2022-09-07T14:59:36.757Z,40.13
2022-09-07T15:02:18.414Z,40.94
2022-09-07T15:04:50.495Z,40.67
2022-09-07T15:07:38.587Z,40.05
2022-09-07T15:10:23.681Z,39.83
2022-09-07T15:12:55.638Z,39.34
2022-09-07T15:15:26.749Z,38.10
2022-09-07T15:18:00.796Z,37.13
2022-09-07T15:20:44.038Z,36.15
2022-09-07T15:23:16.894Z,35.64
2022-09-07T15:25:49.881Z,33.53
2022-09-07T15:34:02.062Z,34.93
2022-09-07T15:36:28.766Z,35.46
2022-09-07T15:38:59.715Z,37.20
2022-09-07T15:41:27.750Z,37.28
2022-09-07T15:43:54.529Z,37.97
2022-09-07T15:46:21.609Z,39.14
2022-09-07T15:48:55.481Z,39.42
2022-09-07T15:54:13.185Z,40.05
2022-09-07T15:56:42.364Z,40.86
2022-09-07T15:59:10.720Z,41.69
2022-09-07T16:01:54.801Z,42.05
2022-09-07T16:04:24.023Z,42.56
2022-09-07T16:06:50.871Z,43.22
2022-09-07T16:09:17.873Z,44.51
2022-09-07T16:11:50.029Z,45.26
2022-09-07T16:14:17.388Z,44.86
2022-09-07T16:19:34.575Z,45.09
2022-09-07T16:22:01.450Z,45.45
2022-09-07T16:24:28.386Z,45.89
2022-09-07T16:26:55.374Z,45.93
2022-09-07T16:29:21.915Z,46.82
2022-09-07T16:34:35.143Z,46.59
2022-09-07T16:37:02.023Z,47.04
2022-09-07T16:39:32.126Z,46.35
2022-09-07T16:42:00.096Z,46.38
2022-09-07T16:44:26.780Z,46.17
2022-09-07T16:46:53.447Z,46.04
2022-09-07T16:49:20.092Z,46.62
2022-09-07T16:51:46.786Z,46.68
2022-09-07T16:54:13.882Z,46.48
2022-09-07T16:56:40.476Z,46.55
2022-09-07T16:59:09.667Z,46.13
2022-09-07T17:01:38.092Z,46.28
2022-09-07T17:04:09.870Z,45.61
2022-09-07T17:06:37.598Z,44.75
2022-09-07T17:09:04.446Z,45.44
2022-09-07T17:11:33.758Z,47.14
2022-09-07T17:14:01.241Z,47.15
2022-09-07T17:16:33.754Z,47.87
2022-09-07T17:21:51.840Z,49.07
2022-09-07T17:24:19.682Z,49.61
2022-09-07T17:26:46.736Z,50.17
2022-09-07T17:29:13.539Z,50.55
2022-09-07T17:34:27.077Z,51.98
2022-09-07T17:36:53.630Z,52.20
2022-09-07T17:39:20.351Z,52.94
2022-09-07T17:41:52.758Z,53.02
2022-09-07T17:44:19.570Z,53.27
2022-09-07T17:46:46.218Z,53.36
2022-09-07T17:49:16.148Z,53.67
2022-09-07T17:51:43.326Z,54.34
2022-09-07T17:54:13.797Z,55.28
2022-09-07T17:56:41.648Z,55.60
2022-09-07T18:01:56.229Z,56.27
2022-09-07T18:04:23.557Z,56.05
2022-09-07T18:06:50.418Z,56.70
2022-09-07T18:09:17.335Z,57.26
2022-09-07T18:11:45.772Z,57.47
2022-09-07T18:14:14.488Z,58.08
2022-09-07T18:16:42.295Z,58.65
2022-09-07T18:19:09.029Z,58.99
2022-09-07T18:21:37.671Z,59.10
2022-09-07T18:24:13.595Z,59.07
2022-09-07T18:26:41.069Z,59.27
2022-09-07T18:29:22.260Z,60.02
2022-09-07T18:31:55.123Z,60.30
2022-09-07T18:34:22.236Z,60.51
2022-09-07T18:36:48.847Z,60.88
2022-09-07T18:39:15.506Z,60.84
2022-09-07T18:41:42.224Z,60.98
2022-09-07T18:46:55.889Z,61.50
2022-09-07T18:49:22.657Z,61.69
2022-09-07T18:54:35.761Z,61.73
2022-09-07T18:57:02.372Z,61.71
2022-09-07T18:59:29.818Z,61.72
2022-09-07T19:02:01.489Z,61.49
2022-09-07T19:07:17.795Z,61.62
2022-09-07T19:09:44.365Z,61.42
2022-09-07T19:12:10.980Z,61.52
2022-09-07T19:14:37.652Z,61.69
2022-09-07T19:17:04.299Z,61.72
2022-09-07T19:19:31.022Z,61.64
2022-09-07T19:21:58.296Z,61.44
2022-09-07T19:24:25.763Z,62.02
2022-09-07T19:26:55.699Z,62.79
2022-09-07T19:29:24.972Z,64.26
2022-09-07T19:32:06.747Z,65.70
2022-09-07T19:34:35.803Z,67.03
2022-09-07T19:37:04.149Z,67.87
2022-09-07T19:39:30.791Z,68.71
2022-09-07T19:41:57.445Z,69.17
2022-09-07T19:44:24.012Z,69.30
2022-09-07T19:46:50.924Z,69.32
2022-09-07T19:49:17.704Z,70.04
2022-09-07T19:51:44.463Z,70.87
2022-09-07T19:54:12.375Z,71.44
2022-09-07T19:56:41.250Z,71.83
2022-09-07T19:59:08.894Z,72.22
2022-09-07T20:01:36.255Z,72.33
2022-09-07T20:04:06.186Z,72.50
2022-09-07T20:06:34.506Z,71.93
2022-09-07T20:09:01.803Z,71.78
2022-09-07T20:11:28.836Z,71.90
2022-09-07T20:13:57.089Z,72.41
2022-09-07T20:16:24.990Z,72.65
2022-09-07T20:18:51.836Z,73.23
2022-09-07T20:21:21.201Z,73.30
2022-09-07T20:23:48.629Z,72.45
2022-09-07T20:26:18.151Z,72.07
2022-09-07T20:28:45.244Z,72.11
2022-09-07T20:31:16.486Z,72.47
2022-09-07T20:33:44.866Z,72.73
2022-09-07T20:36:14.486Z,72.92
2022-09-07T20:38:41.907Z,72.98
2022-09-07T20:41:13.883Z,73.47
2022-09-07T20:43:40.481Z,73.51
2022-09-07T20:46:09.655Z,74.18
2022-09-07T20:48:39.800Z,74.00
2022-09-07T20:51:09.570Z,74.01
2022-09-07T20:53:37.269Z,74.45
2022-09-07T20:56:15.311Z,75.20
2022-09-07T20:58:43.377Z,75.86
2022-09-07T21:01:15.145Z,76.64
2022-09-07T21:03:49.693Z,77.35
2022-09-07T21:06:16.870Z,77.90
2022-09-07T21:08:45.134Z,78.01
2022-09-07T21:11:21.611Z,78.51
2022-09-07T21:13:55.108Z,78.64
2022-09-07T21:16:21.744Z,79.08
2022-09-07T21:18:53.210Z,79.30
2022-09-07T21:21:20.761Z,79.66
2022-09-07T21:23:47.971Z,79.71
2022-09-07T21:26:19.540Z,80.52
2022-09-07T21:28:46.094Z,80.50
2022-09-07T21:31:12.738Z,80.40
2022-09-07T21:33:39.324Z,80.27
2022-09-07T21:36:12.174Z,80.56
2022-09-07T21:38:41.283Z,80.93
2022-09-07T21:41:13.135Z,81.39
2022-09-07T21:43:39.829Z,81.67
2022-09-07T21:46:13.805Z,82.33
2022-09-07T21:48:40.586Z,82.46
2022-09-07T21:51:07.243Z,82.89
2022-09-07T21:53:34.260Z,83.18
2022-09-07T21:56:03.079Z,83.37
2022-09-07T21:58:30.524Z,83.64
2022-09-07T22:00:58.255Z,83.69
2022-09-07T22:03:25.523Z,84.18
2022-09-07T22:05:52.403Z,84.94
2022-09-07T22:08:19.365Z,85.11
2022-09-07T22:10:46.979Z,85.81
2022-09-07T22:13:13.554Z,85.23
2022-09-07T22:15:40.992Z,84.95
2022-09-07T22:18:11.377Z,85.48
2022-09-07T22:20:38.147Z,85.13
2022-09-07T22:23:07.649Z,85.37
2022-09-07T22:25:34.930Z,85.43
2022-09-07T22:28:01.833Z,85.77
2022-09-07T22:30:28.401Z,86.39
2022-09-07T22:32:55.088Z,86.41
2022-09-07T22:35:23.931Z,86.96
2022-09-07T22:37:50.471Z,87.27
2022-09-07T22:40:17.157Z,87.32
2022-09-07T22:42:43.787Z,87.44
2022-09-07T22:45:10.662Z,87.44
2022-09-07T22:47:37.243Z,87.85
2022-09-07T22:50:04.104Z,87.88
2022-09-07T22:52:30.876Z,88.37
2022-09-07T22:54:57.475Z,88.44
2022-09-07T22:57:24.049Z,88.18
2022-09-07T22:59:51.675Z,88.17
2022-09-07T23:02:18.217Z,88.00
2022-09-07T23:04:44.951Z,87.41
2022-09-07T23:07:11.651Z,87.85
2022-09-07T23:09:38.235Z,87.76
2022-09-07T23:12:04.924Z,87.51
2022-09-07T23:14:31.546Z,87.80
2022-09-07T23:16:58.653Z,87.76
2022-09-07T23:19:25.345Z,87.63
2022-09-07T23:21:52.057Z,87.89
2022-09-07T23:24:19.334Z,87.82
2022-09-07T23:26:46.945Z,87.46
2022-09-07T23:29:14.927Z,87.15
2022-09-07T23:31:42.071Z,86.71
2022-09-07T23:34:09.553Z,86.43
2022-09-07T23:36:37.252Z,86.31
2022-09-07T23:39:03.953Z,86.23
2022-09-07T23:41:30.606Z,85.88
2022-09-07T23:43:57.679Z,85.05
2022-09-07T23:46:24.620Z,84.01
2022-09-07T23:48:51.345Z,83.13
2022-09-07T23:51:23.446Z,82.64
2022-09-07T23:53:51.010Z,81.83
2022-09-07T23:56:17.698Z,81.84
2022-09-07T23:58:44.364Z,82.37
